Samish Island, Washington
Current Conditions -  °F | °C
As of 9:00 AM on Thursday 23 Oct 2014 (Local Time) from KBLI Reporting Station
Light Rain Light Rain  
Wind Chill: 54°   Ceiling: 5500
Heat Index: 54°   Visibility: 8mi
Dew Point: 46°   Wind: 17mph
Humidity: 77%   Direction: 150°SSE
Pressure: 29.7"   Gusts: 30mph
Location:  48.5689°N, 122.407°W
Report Text: KBLI 231600Z 15015G26KT 8SM -RA FEW019 OVC055 12/08 A2970 RMK AO2 PK WND 15026/1558 P0000
Loading
Personal Weather Stations






























Interactive Weather Map
Tropical Storm Tracking
New forecast layout! Learn more

10-Day Weather Forecast

Advertisements
Track Severe Weather on mobile